Time;durP1;ratioP1;P1;durP2;ratioP2;P2;SDS_P1;SDS_P2;PMS_P1;PMS_P2;Temp;Humidity;BMP_temperature;BMP_pressure;BME280_temperature;BME280_humidity;BME280_pressure;Samples;Min_cycle;Max_cycle;Signal;HPM_P1;HPM_P2
2023/05/15 00:00:09;;;;;;;4.32;2.90;;;14.20;99.90;;;;;;7383560;19;20547;-75
2023/05/15 00:02:36;;;;;;;4.07;2.72;;;14.10;99.90;;;;;;7385402;19;20571;-75
2023/05/15 00:05:03;;;;;;;3.05;2.70;;;14.10;99.90;;;;;;7381665;19;20237;-74
2023/05/15 00:07:29;;;;;;;3.67;3.10;;;14.00;99.90;;;;;;7384353;19;20138;-75
2023/05/15 00:09:55;;;;;;;6.20;2.70;;;14.10;99.90;;;;;;7383389;19;20142;-75
2023/05/15 00:12:21;;;;;;;2.97;2.67;;;14.00;99.90;;;;;;7383286;19;20138;-75
2023/05/15 00:14:47;;;;;;;3.20;2.78;;;14.20;99.90;;;;;;7382106;19;20157;-75
2023/05/15 00:17:12;;;;;;;3.03;2.60;;;14.20;99.90;;;;;;7384678;19;20145;-75
2023/05/15 00:19:39;;;;;;;3.38;2.50;;;14.30;99.90;;;;;;7380514;19;20238;-76
2023/05/15 00:22:05;;;;;;;4.15;2.83;;;14.20;99.90;;;;;;7385778;19;20134;-76
2023/05/15 00:24:31;;;;;;;4.68;2.50;;;14.30;99.90;;;;;;7381905;19;20127;-76
2023/05/15 00:26:58;;;;;;;2.87;2.50;;;14.20;99.90;;;;;;7381716;19;20518;-74
2023/05/15 00:29:24;;;;;;;2.95;2.65;;;14.20;99.90;;;;;;7381461;19;20122;-75
2023/05/15 00:31:49;;;;;;;4.20;2.65;;;14.20;99.90;;;;;;7382179;19;20130;-75
2023/05/15 00:34:15;;;;;;;3.00;2.70;;;14.20;99.90;;;;;;7387487;19;20234;-75
2023/05/15 00:36:41;;;;;;;4.28;3.50;;;14.20;99.90;;;;;;7392239;19;20586;-75
2023/05/15 00:39:06;;;;;;;2.80;2.60;;;14.20;99.90;;;;;;7388292;19;20191;-76
2023/05/15 00:41:33;;;;;;;5.28;3.00;;;14.10;99.90;;;;;;7387852;19;20122;-75
2023/05/15 00:44:00;;;;;;;3.90;3.20;;;14.10;99.90;;;;;;7389377;19;20139;-74
2023/05/15 00:46:29;;;;;;;3.13;2.42;;;14.20;99.90;;;;;;7392230;19;20563;-75
2023/05/15 00:48:56;;;;;;;3.13;2.83;;;14.20;99.90;;;;;;7388571;19;20220;-76
2023/05/15 00:51:22;;;;;;;3.80;2.73;;;14.20;99.90;;;;;;7386784;19;20150;-75
2023/05/15 00:53:51;;;;;;;3.17;2.70;;;14.10;99.90;;;;;;7388884;19;20139;-76
2023/05/15 00:56:17;;;;;;;3.55;2.75;;;14.20;99.90;;;;;;7391488;19;20150;-76
2023/05/15 00:58:46;;;;;;;3.30;2.80;;;14.20;99.90;;;;;;7389034;19;20590;-75
2023/05/15 01:01:16;;;;;;;3.85;3.00;;;14.10;99.90;;;;;;7387259;19;20579;-76
2023/05/15 01:03:43;;;;;;;4.20;3.30;;;14.10;99.90;;;;;;7388270;19;20577;-75
2023/05/15 01:06:09;;;;;;;3.70;3.05;;;14.10;99.90;;;;;;7386406;19;20166;-74
2023/05/15 01:08:47;;;;;;;4.05;3.20;;;14.10;99.90;;;;;;7391830;19;20143;-75
2023/05/15 01:11:15;;;;;;;4.17;2.67;;;14.10;99.90;;;;;;7389560;19;20139;-75
2023/05/15 01:13:41;;;;;;;5.37;3.27;;;14.10;99.90;;;;;;7388764;19;20150;-75
2023/05/15 01:16:07;;;;;;;3.78;2.88;;;14.10;99.90;;;;;;7388987;19;20135;-74
2023/05/15 01:18:33;;;;;;;3.95;3.00;;;14.10;99.90;;;;;;7389781;19;20474;-75
2023/05/15 01:21:02;;;;;;;4.45;3.13;;;14.10;99.90;;;;;;7387910;19;20139;-75
2023/05/15 01:23:52;;;;;;;3.47;2.92;;;14.10;99.90;;;;;;7389959;19;20157;-75
2023/05/15 01:26:36;;;;;;;5.05;3.65;;;14.10;99.90;;;;;;7390720;19;20164;-75
2023/05/15 01:29:20;;;;;;;5.53;3.50;;;14.00;99.90;;;;;;7391194;19;20142;-76
2023/05/15 01:31:51;;;;;;;4.90;3.13;;;14.00;99.90;;;;;;7387771;19;20665;-75
2023/05/15 01:34:20;;;;;;;5.85;3.40;;;13.90;99.90;;;;;;7390110;19;20142;-75
2023/05/15 01:36:52;;;;;;;4.72;3.22;;;13.90;99.90;;;;;;7387647;19;20143;-76
2023/05/15 01:39:25;;;;;;;3.38;2.88;;;14.00;99.90;;;;;;7390872;19;20141;-75
2023/05/15 01:42:01;;;;;;;4.50;3.22;;;14.00;99.90;;;;;;7387207;19;20147;-76
2023/05/15 01:44:29;;;;;;;5.27;3.03;;;14.00;99.90;;;;;;7387606;19;20162;-75
2023/05/15 01:46:59;;;;;;;4.47;3.03;;;14.00;99.90;;;;;;7387839;19;20135;-75
2023/05/15 01:49:30;;;;;;;3.50;2.58;;;14.10;99.90;;;;;;7387997;19;20431;-75
2023/05/15 01:52:11;;;;;;;3.35;3.00;;;14.10;99.90;;;;;;7389430;19;20648;-76
2023/05/15 01:54:38;;;;;;;3.47;2.97;;;14.10;99.90;;;;;;7386954;19;20138;-75
2023/05/15 01:57:06;;;;;;;3.85;2.53;;;14.00;99.90;;;;;;7392376;19;20139;-76
2023/05/15 01:59:33;;;;;;;5.85;3.10;;;14.00;99.90;;;;;;7385132;19;20155;-75
2023/05/15 02:01:59;;;;;;;3.40;2.72;;;14.00;99.90;;;;;;7389727;19;20149;-76
2023/05/15 02:04:25;;;;;;;3.78;2.90;;;14.00;99.90;;;;;;7389238;19;20262;-75
2023/05/15 02:06:52;;;;;;;4.60;2.90;;;14.10;99.90;;;;;;7388854;19;21047;-76
2023/05/15 02:09:22;;;;;;;3.60;3.05;;;14.00;99.90;;;;;;7389684;19;20161;-76
2023/05/15 02:11:49;;;;;;;5.20;2.97;;;14.00;99.90;;;;;;7388521;19;20150;-75
2023/05/15 02:14:16;;;;;;;4.90;3.57;;;14.00;99.90;;;;;;7387557;19;20152;-75
2023/05/15 02:16:42;;;;;;;3.85;2.85;;;13.90;99.90;;;;;;7387285;19;20172;-76
2023/05/15 02:19:08;;;;;;;4.68;3.08;;;14.00;99.90;;;;;;7384542;19;20147;-76
2023/05/15 02:21:34;;;;;;;5.07;3.35;;;13.80;99.90;;;;;;7387530;19;20142;-75
2023/05/15 02:24:00;;;;;;;3.27;2.90;;;13.90;99.90;;;;;;7388272;19;20147;-75
2023/05/15 02:26:59;;;;;;;3.28;2.97;;;13.90;99.90;;;;;;7387578;19;20217;-75
2023/05/15 02:29:52;;;;;;;4.05;2.88;;;13.90;99.90;;;;;;7387344;19;20182;-75
2023/05/15 02:32:28;;;;;;;5.67;3.37;;;13.90;99.90;;;;;;7391270;19;20134;-76
2023/05/15 02:35:11;;;;;;;3.92;3.28;;;13.90;99.90;;;;;;7387635;19;20138;-76
2023/05/15 02:37:45;;;;;;;3.75;2.97;;;13.80;99.90;;;;;;7386961;19;20150;-74
2023/05/15 02:40:14;;;;;;;6.55;3.30;;;13.80;99.90;;;;;;7385735;19;20477;-75
2023/05/15 02:42:41;;;;;;;4.07;2.88;;;13.80;99.90;;;;;;7386222;19;20758;-74
2023/05/15 02:45:09;;;;;;;3.85;3.10;;;13.80;99.90;;;;;;7385327;19;20138;-75
2023/05/15 02:47:35;;;;;;;4.30;2.67;;;13.80;99.90;;;;;;7387794;19;20126;-75
2023/05/15 02:50:03;;;;;;;4.93;2.97;;;13.30;99.90;;;;;;7385288;19;20133;-75
2023/05/15 02:52:28;;;;;;;4.25;3.13;;;13.30;99.90;;;;;;7389995;19;20172;-75
2023/05/15 02:54:54;;;;;;;3.35;2.72;;;13.40;99.90;;;;;;7385580;19;20135;-76
2023/05/15 02:57:20;;;;;;;4.93;3.07;;;13.50;99.90;;;;;;7385091;19;20141;-75
2023/05/15 02:59:46;;;;;;;3.53;3.00;;;13.60;99.90;;;;;;7386875;19;20134;-75
2023/05/15 03:02:11;;;;;;;4.55;2.60;;;13.60;99.90;;;;;;7387044;19;20146;-75
2023/05/15 03:04:37;;;;;;;3.40;2.63;;;13.90;99.90;;;;;;7386864;19;20154;-76
2023/05/15 03:07:03;;;;;;;4.43;3.40;;;13.80;99.90;;;;;;7383509;19;20643;-76
2023/05/15 03:09:28;;;;;;;2.95;2.65;;;13.90;99.90;;;;;;7386141;19;20218;-75
2023/05/15 03:11:54;;;;;;;2.70;2.50;;;13.90;99.90;;;;;;7387632;19;20142;-75
2023/05/15 03:14:20;;;;;;;3.75;2.90;;;13.90;99.90;;;;;;7386369;19;20139;-75
2023/05/15 03:16:46;;;;;;;3.57;2.93;;;13.90;99.90;;;;;;7385616;19;20127;-75
2023/05/15 03:19:12;;;;;;;4.00;2.80;;;14.10;99.90;;;;;;7384491;19;20218;-75
2023/05/15 03:21:37;;;;;;;6.00;2.50;;;14.00;99.90;;;;;;7382656;19;20783;-75
2023/05/15 03:24:03;;;;;;;3.10;2.75;;;13.70;99.90;;;;;;7385373;19;20130;-76
2023/05/15 03:26:29;;;;;;;3.17;2.42;;;13.90;99.90;;;;;;7386950;19;20126;-75
2023/05/15 03:28:56;;;;;;;3.10;2.58;;;13.90;99.90;;;;;;7384882;19;20270;-76
2023/05/15 03:31:22;;;;;;;3.40;2.70;;;14.00;99.90;;;;;;7385726;19;20155;-74
2023/05/15 03:33:49;;;;;;;3.30;2.75;;;14.00;99.90;;;;;;7385254;19;20131;-74
2023/05/15 03:36:15;;;;;;;3.33;2.83;;;14.00;99.90;;;;;;7386648;19;20461;-74
2023/05/15 03:38:43;;;;;;;3.55;2.80;;;14.10;99.90;;;;;;7384423;19;20174;-75
2023/05/15 03:41:09;;;;;;;4.32;2.80;;;14.10;99.90;;;;;;7386444;19;20594;-75
2023/05/15 03:43:35;;;;;;;4.00;2.50;;;14.00;99.90;;;;;;7382503;19;20163;-74
2023/05/15 03:46:01;;;;;;;2.97;2.67;;;14.00;99.90;;;;;;7385300;19;20138;-75
2023/05/15 03:48:26;;;;;;;4.32;3.00;;;14.10;99.90;;;;;;7386616;19;20138;-76
2023/05/15 03:50:52;;;;;;;5.53;2.85;;;13.90;99.90;;;;;;7386859;19;20146;-75
2023/05/15 03:53:18;;;;;;;3.37;2.60;;;14.00;99.90;;;;;;7383371;19;20146;-75
2023/05/15 03:55:44;;;;;;;3.30;2.92;;;14.00;99.90;;;;;;7387300;19;20228;-75
2023/05/15 03:58:10;;;;;;;3.72;2.85;;;14.10;99.90;;;;;;7385003;19;20266;-75
2023/05/15 04:00:36;;;;;;;3.90;2.70;;;14.10;99.90;;;;;;7379829;19;20607;-75
2023/05/15 04:03:01;;;;;;;3.00;2.70;;;14.10;99.90;;;;;;7385924;19;20153;-75
2023/05/15 04:05:27;;;;;;;2.90;2.40;;;14.10;99.90;;;;;;7383000;19;20206;-76
2023/05/15 04:07:53;;;;;;;3.67;2.63;;;14.10;99.90;;;;;;7385913;19;20238;-75
2023/05/15 04:10:19;;;;;;;4.30;2.60;;;14.10;99.90;;;;;;7390554;19;20134;-75
2023/05/15 04:12:44;;;;;;;3.78;2.95;;;14.20;99.90;;;;;;7392387;19;20143;-75
2023/05/15 04:15:17;;;;;;;2.97;2.70;;;13.90;99.90;;;;;;7390561;19;20154;-75
2023/05/15 04:17:47;;;;;;;3.63;2.97;;;13.90;99.90;;;;;;7391207;19;20150;-76
2023/05/15 04:20:15;;;;;;;4.85;3.10;;;14.10;99.90;;;;;;7389029;19;20150;-76
2023/05/15 04:22:42;;;;;;;4.57;3.63;;;14.20;99.90;;;;;;7389249;19;20146;-76
2023/05/15 04:25:10;;;;;;;3.85;3.30;;;14.10;99.90;;;;;;7392261;19;20594;-77
2023/05/15 04:27:37;;;;;;;3.87;3.00;;;14.10;99.90;;;;;;7389255;19;20462;-76
2023/05/15 04:30:04;;;;;;;3.63;2.90;;;14.10;99.90;;;;;;7391561;19;20160;-76
2023/05/15 04:32:30;;;;;;;3.92;3.10;;;14.20;99.90;;;;;;7390905;19;20471;-76
2023/05/15 04:34:57;;;;;;;3.72;3.35;;;14.20;99.90;;;;;;7391333;19;20771;-75
2023/05/15 04:37:23;;;;;;;4.18;3.33;;;14.10;99.90;;;;;;7390756;19;20135;-77
2023/05/15 04:39:48;;;;;;;3.08;2.72;;;14.10;99.90;;;;;;7389827;19;20158;-76
2023/05/15 04:42:14;;;;;;;5.25;3.10;;;14.00;99.90;;;;;;7389022;19;20168;-75
2023/05/15 04:44:40;;;;;;;3.33;3.03;;;13.80;99.90;;;;;;7390705;19;20183;-76
2023/05/15 04:47:06;;;;;;;4.85;3.20;;;14.10;99.90;;;;;;7390673;19;20158;-76
2023/05/15 04:49:31;;;;;;;4.47;3.70;;;14.30;99.90;;;;;;7390653;19;20145;-75
2023/05/15 04:51:57;;;;;;;3.60;3.08;;;14.40;99.90;;;;;;7391907;19;20482;-75
2023/05/15 04:54:23;;;;;;;3.83;3.42;;;14.30;99.90;;;;;;7390502;19;20143;-75
2023/05/15 04:56:48;;;;;;;5.67;3.90;;;14.40;99.90;;;;;;7391814;19;20480;-75
2023/05/15 04:59:15;;;;;;;4.88;3.83;;;14.40;99.90;;;;;;7390167;19;20468;-75
2023/05/15 05:01:40;;;;;;;8.40;3.88;;;14.50;99.90;;;;;;7388844;19;20146;-75
2023/05/15 05:04:06;;;;;;;4.10;3.70;;;14.60;99.90;;;;;;7389786;19;20749;-76
2023/05/15 05:06:32;;;;;;;4.67;3.40;;;14.60;99.90;;;;;;7386140;19;20175;-76
2023/05/15 05:08:57;;;;;;;4.55;3.80;;;14.60;99.90;;;;;;7390509;19;20161;-76
2023/05/15 05:11:23;;;;;;;5.72;3.47;;;14.60;99.90;;;;;;7388426;19;20153;-75
2023/05/15 05:13:50;;;;;;;5.22;3.30;;;14.70;99.90;;;;;;7389894;19;20206;-76
2023/05/15 05:16:16;;;;;;;3.80;3.40;;;14.70;99.90;;;;;;7388854;19;20142;-75
2023/05/15 05:18:42;;;;;;;7.47;5.70;;;14.50;99.90;;;;;;7389369;19;20296;-75
2023/05/15 05:21:07;;;;;;;5.28;3.88;;;14.60;99.90;;;;;;7384278;19;20586;-75
2023/05/15 05:23:33;;;;;;;3.92;3.53;;;14.60;99.90;;;;;;7390312;19;20160;-75
2023/05/15 05:25:59;;;;;;;6.80;3.53;;;14.90;99.90;;;;;;7386924;19;20145;-76
2023/05/15 05:28:25;;;;;;;4.15;3.55;;;15.00;99.90;;;;;;7390559;19;20741;-75
2023/05/15 05:30:51;;;;;;;4.10;3.38;;;14.90;99.90;;;;;;7387138;19;20152;-75
2023/05/15 05:33:18;;;;;;;6.15;3.90;;;14.90;99.90;;;;;;7384334;19;20489;-76
2023/05/15 05:35:44;;;;;;;4.07;3.67;;;14.80;99.90;;;;;;7387109;19;20150;-77
2023/05/15 05:38:10;;;;;;;4.80;3.92;;;15.00;99.90;;;;;;7387422;19;20598;-74
2023/05/15 05:40:36;;;;;;;4.10;3.55;;;15.00;99.90;;;;;;7385301;19;20138;-73
2023/05/15 05:43:03;;;;;;;4.13;3.72;;;15.00;99.90;;;;;;7388322;19;20155;-75
2023/05/15 05:45:29;;;;;;;7.75;4.32;;;15.00;99.90;;;;;;7380682;19;20932;-74
2023/05/15 05:47:55;;;;;;;6.15;4.10;;;15.00;99.90;;;;;;7383764;19;20142;-74
2023/05/15 05:50:22;;;;;;;4.70;4.00;;;15.20;99.90;;;;;;7382259;19;20230;-75
2023/05/15 05:52:49;;;;;;;6.05;3.45;;;15.20;99.90;;;;;;7385170;19;20139;-74
2023/05/15 05:55:15;;;;;;;5.63;5.05;;;15.20;99.90;;;;;;7385779;19;20142;-74
2023/05/15 05:57:41;;;;;;;9.00;5.90;;;15.30;99.90;;;;;;7383045;19;20146;-75
2023/05/15 06:00:08;;;;;;;12.82;9.27;;;15.20;99.90;;;;;;7385629;19;20154;-75
2023/05/15 06:02:35;;;;;;;7.95;5.88;;;15.10;99.90;;;;;;7387974;19;20148;-75
2023/05/15 06:05:02;;;;;;;5.80;4.28;;;15.10;99.90;;;;;;7387143;19;20223;-73
2023/05/15 06:07:28;;;;;;;6.03;4.40;;;14.90;99.90;;;;;;7384276;19;20508;-74
2023/05/15 06:09:53;;;;;;;7.07;4.05;;;14.90;99.90;;;;;;7386814;19;20135;-74
2023/05/15 06:12:19;;;;;;;4.97;4.38;;;14.90;99.90;;;;;;7386912;19;20155;-74
2023/05/15 06:14:45;;;;;;;4.82;4.32;;;15.00;99.90;;;;;;7387923;19;20206;-74
2023/05/15 06:17:11;;;;;;;4.80;4.20;;;15.10;99.90;;;;;;7386923;19;20170;-75
2023/05/15 06:19:37;;;;;;;6.57;4.55;;;15.50;99.90;;;;;;7386519;19;20182;-75
2023/05/15 06:22:03;;;;;;;5.25;4.22;;;16.80;99.90;;;;;;7385024;19;20142;-76
2023/05/15 06:24:29;;;;;;;6.78;4.15;;;17.60;99.90;;;;;;7386222;19;20547;-75
2023/05/15 06:26:55;;;;;;;4.60;3.75;;;18.80;99.90;;;;;;7386599;19;20155;-75
2023/05/15 06:29:20;;;;;;;6.07;5.13;;;20.80;99.90;;;;;;7387279;19;20158;-76
2023/05/15 06:31:46;;;;;;;5.15;4.00;;;21.70;99.90;;;;;;7386672;19;20187;-74
2023/05/15 06:34:12;;;;;;;4.63;3.80;;;23.20;99.90;;;;;;7387801;19;20154;-75
2023/05/15 06:36:38;;;;;;;3.78;3.38;;;24.00;99.90;;;;;;7387252;19;20182;-75
2023/05/15 06:39:04;;;;;;;5.50;3.47;;;24.30;99.90;;;;;;7386911;19;20154;-76
2023/05/15 06:41:31;;;;;;;4.10;3.00;;;25.20;99.90;;;;;;7383962;19;20134;-76
2023/05/15 06:43:58;;;;;;;4.60;3.35;;;24.70;99.90;;;;;;7385048;19;20438;-75
2023/05/15 06:46:24;;;;;;;4.80;3.58;;;25.70;99.90;;;;;;7381402;19;20161;-76
2023/05/15 06:48:50;;;;;;;3.70;3.40;;;26.10;99.90;;;;;;7380553;19;20691;-75
2023/05/15 06:51:16;;;;;;;3.97;3.35;;;25.50;99.90;;;;;;7382275;19;20142;-76
2023/05/15 06:53:41;;;;;;;6.45;4.03;;;25.00;99.90;;;;;;7382512;19;20146;-75
2023/05/15 06:56:07;;;;;;;4.75;3.65;;;24.10;99.90;;;;;;7379722;19;20139;-77
2023/05/15 06:58:33;;;;;;;4.40;3.85;;;23.80;99.90;;;;;;7383602;19;20141;-75
2023/05/15 07:01:02;;;;;;;3.50;3.08;;;23.40;99.90;;;;;;7371960;19;20941;-81
2023/05/15 07:03:28;;;;;;;5.75;3.50;;;23.00;99.90;;;;;;7381612;19;20139;-76
2023/05/15 07:05:54;;;;;;;3.72;3.33;;;22.40;99.90;;;;;;7387718;19;20131;-77
2023/05/15 07:08:20;;;;;;;4.05;3.17;;;22.00;99.90;;;;;;7383357;19;20154;-76
2023/05/15 07:10:47;;;;;;;3.05;2.63;;;22.80;99.90;;;;;;7382895;19;20154;-77
2023/05/15 07:13:13;;;;;;;5.78;3.85;;;22.40;99.90;;;;;;7383394;19;20165;-76
2023/05/15 07:15:38;;;;;;;3.60;3.10;;;21.50;99.90;;;;;;7387054;19;20531;-76
2023/05/15 07:18:05;;;;;;;4.88;3.08;;;21.20;99.90;;;;;;7386651;19;20163;-76
2023/05/15 07:20:31;;;;;;;2.80;2.50;;;21.30;99.90;;;;;;7380610;19;20199;-76
2023/05/15 07:22:56;;;;;;;3.75;2.88;;;21.30;99.90;;;;;;7383436;19;20150;-76
2023/05/15 07:25:23;;;;;;;2.85;2.55;;;20.80;99.90;;;;;;7386370;19;20226;-76
2023/05/15 07:27:49;;;;;;;3.25;2.60;;;20.30;99.90;;;;;;7386316;19;20158;-78
2023/05/15 07:30:15;;;;;;;4.00;3.03;;;19.90;99.90;;;;;;7387403;19;20145;-77
2023/05/15 07:32:40;;;;;;;3.10;2.40;;;19.70;99.90;;;;;;7385986;19;20130;-76
2023/05/15 07:35:06;;;;;;;3.90;2.67;;;19.80;99.90;;;;;;7381867;19;20609;-77
2023/05/15 07:37:32;;;;;;;3.17;2.55;;;20.40;99.90;;;;;;7387395;19;20142;-75
2023/05/15 07:39:58;;;;;;;4.45;3.03;;;21.20;99.90;;;;;;7383424;19;20139;-76
2023/05/15 07:42:24;;;;;;;4.28;3.00;;;21.70;99.90;;;;;;7383964;19;20573;-75
2023/05/15 07:44:50;;;;;;;3.53;2.95;;;21.70;99.90;;;;;;7382094;19;20134;-75
2023/05/15 07:47:16;;;;;;;3.40;3.10;;;21.40;99.90;;;;;;7385788;19;20214;-75
2023/05/15 07:49:42;;;;;;;3.88;3.45;;;21.10;99.90;;;;;;7385547;19;20221;-75
2023/05/15 07:52:08;;;;;;;3.05;2.75;;;20.90;99.90;;;;;;7383739;19;20166;-76
2023/05/15 07:54:33;;;;;;;5.47;3.17;;;20.80;99.90;;;;;;7386769;19;20480;-76
2023/05/15 07:56:59;;;;;;;4.22;2.53;;;20.90;99.90;;;;;;7386005;19;20594;-75
2023/05/15 07:59:58;;;;;;;5.80;2.78;;;21.10;99.90;;;;;;7383278;19;20436;-77
2023/05/15 08:02:31;;;;;;;3.63;2.85;;;21.40;99.90;;;;;;7380110;19;20166;-75
2023/05/15 08:04:57;;;;;;;3.45;2.63;;;21.10;99.90;;;;;;7384388;19;20151;-76
2023/05/15 08:07:23;;;;;;;3.00;2.28;;;21.00;99.90;;;;;;7386778;19;20168;-74
2023/05/15 08:09:49;;;;;;;3.95;2.42;;;21.10;99.90;;;;;;7383281;19;20154;-76
2023/05/15 08:12:23;;;;;;;2.85;2.50;;;20.20;99.90;;;;;;7386142;19;20133;-76
2023/05/15 08:14:50;;;;;;;2.75;2.10;;;19.80;99.90;;;;;;7384036;19;20173;-76
2023/05/15 08:17:16;;;;;;;3.03;2.55;;;20.10;99.90;;;;;;7384640;19;20177;-76
2023/05/15 08:19:42;;;;;;;5.07;2.17;;;20.50;99.90;;;;;;7382128;19;20174;-75
2023/05/15 08:22:10;;;;;;;2.47;1.92;;;20.40;99.90;;;;;;7382580;19;20238;-75
2023/05/15 08:24:37;;;;;;;2.05;1.85;;;20.50;99.90;;;;;;7384546;19;20169;-76
2023/05/15 08:27:05;;;;;;;3.67;2.35;;;20.20;99.90;;;;;;7385114;19;20158;-76
2023/05/15 08:29:37;;;;;;;2.78;2.20;;;20.30;99.90;;;;;;7383073;19;20138;-76
2023/05/15 08:32:04;;;;;;;2.65;2.17;;;20.00;99.90;;;;;;7384418;19;20198;-75
2023/05/15 08:34:30;;;;;;;3.53;2.75;;;20.10;99.90;;;;;;7385643;19;20168;-75
2023/05/15 08:36:58;;;;;;;4.45;2.22;;;19.90;99.90;;;;;;7383096;19;20142;-75
2023/05/15 08:39:24;;;;;;;4.55;3.20;;;19.90;99.90;;;;;;7383887;19;20459;-75
2023/05/15 08:41:56;;;;;;;3.63;2.60;;;19.90;99.90;;;;;;7380606;19;20474;-75
2023/05/15 08:44:23;;;;;;;2.92;2.40;;;20.00;99.90;;;;;;7386612;19;20160;-75
2023/05/15 08:46:51;;;;;;;4.18;2.95;;;20.10;99.90;;;;;;7381215;19;20519;-75
2023/05/15 08:49:25;;;;;;;2.80;2.28;;;19.80;99.90;;;;;;7383170;19;20530;-75
2023/05/15 08:51:52;;;;;;;3.67;2.35;;;19.60;99.90;;;;;;7384198;19;20623;-75
2023/05/15 08:54:18;;;;;;;3.38;2.58;;;19.50;99.90;;;;;;7384181;19;20154;-75
2023/05/15 08:56:44;;;;;;;2.45;2.10;;;19.60;99.90;;;;;;7389025;19;20147;-76
2023/05/15 08:59:11;;;;;;;2.45;2.13;;;19.60;99.90;;;;;;7390220;19;20134;-76
2023/05/15 09:01:37;;;;;;;5.13;2.55;;;19.90;99.90;;;;;;7389203;19;20563;-76
2023/05/15 09:04:03;;;;;;;3.42;2.78;;;19.70;99.90;;;;;;7390268;19;20138;-75
2023/05/15 09:06:31;;;;;;;2.90;2.55;;;19.90;99.90;;;;;;7390404;19;20544;-75
2023/05/15 09:08:59;;;;;;;3.05;2.42;;;19.90;99.90;;;;;;7389774;19;20150;-76
2023/05/15 09:11:27;;;;;;;2.40;2.13;;;20.00;99.90;;;;;;7388898;19;20267;-76
2023/05/15 09:13:57;;;;;;;2.65;2.40;;;19.80;99.90;;;;;;7391284;19;20150;-75
2023/05/15 09:16:23;;;;;;;3.55;2.60;;;19.60;99.90;;;;;;7389650;19;20135;-75
2023/05/15 09:18:49;;;;;;;3.17;2.58;;;19.40;99.90;;;;;;7389567;19;20182;-76
2023/05/15 09:21:25;;;;;;;3.85;3.17;;;19.10;99.90;;;;;;7388113;19;20154;-75
2023/05/15 09:24:13;;;;;;;6.60;3.35;;;18.90;99.90;;;;;;7388267;19;20156;-75
2023/05/15 09:26:40;;;;;;;4.05;2.95;;;18.80;99.90;;;;;;7388987;19;20147;-75
2023/05/15 09:29:06;;;;;;;2.90;2.60;;;18.60;99.90;;;;;;7387408;19;20155;-75
2023/05/15 09:31:32;;;;;;;3.65;2.75;;;18.40;99.90;;;;;;7389410;19;20150;-75
2023/05/15 09:34:04;;;;;;;4.53;2.85;;;18.50;99.90;;;;;;7387187;19;20156;-74
2023/05/15 09:36:31;;;;;;;3.00;2.70;;;18.30;99.90;;;;;;7389590;19;20143;-74
2023/05/15 09:38:58;;;;;;;6.25;3.92;;;18.40;99.90;;;;;;7388408;19;20139;-75
2023/05/15 09:41:25;;;;;;;3.38;2.80;;;18.80;99.90;;;;;;7388046;19;20617;-75
2023/05/15 09:43:53;;;;;;;3.42;2.55;;;19.20;99.90;;;;;;7386105;19;20146;-75
2023/05/15 09:46:20;;;;;;;2.72;2.15;;;19.40;99.90;;;;;;7388115;19;20143;-75
2023/05/15 09:48:45;;;;;;;3.42;2.50;;;19.40;99.90;;;;;;7386814;19;20135;-76
2023/05/15 09:51:17;;;;;;;2.80;2.50;;;19.40;99.90;;;;;;7387299;19;20165;-75
2023/05/15 09:53:56;;;;;;;2.28;2.08;;;19.50;99.90;;;;;;7389677;19;20846;-77
2023/05/15 09:56:21;;;;;;;2.65;2.40;;;19.40;99.90;;;;;;7389159;19;20139;-77
2023/05/15 09:58:55;;;;;;;2.88;2.08;;;19.50;99.90;;;;;;7389396;19;20126;-83
2023/05/15 10:01:25;;;;;;;4.15;2.42;;;19.40;99.90;;;;;;7387294;19;20176;-77
2023/05/15 10:04:02;;;;;;;4.07;2.65;;;19.60;99.90;;;;;;7387146;19;20134;-76
2023/05/15 10:06:36;;;;;;;4.40;2.15;;;19.80;99.90;;;;;;7385778;19;20150;-76
2023/05/15 10:09:03;;;;;;;3.38;2.50;;;19.70;99.90;;;;;;7386978;19;20363;-75
2023/05/15 10:11:31;;;;;;;5.57;3.00;;;19.50;99.90;;;;;;7388004;19;20666;-76
2023/05/15 10:13:58;;;;;;;3.25;2.50;;;19.30;99.90;;;;;;7387037;19;21266;-75
2023/05/15 10:16:25;;;;;;;2.42;2.10;;;19.30;99.90;;;;;;7388156;19;20259;-74
2023/05/15 10:18:51;;;;;;;2.53;2.05;;;19.40;99.90;;;;;;7388456;19;20186;-76
2023/05/15 10:21:19;;;;;;;3.00;2.30;;;19.50;99.90;;;;;;7388226;19;20145;-77
2023/05/15 10:23:47;;;;;;;4.28;2.10;;;19.70;99.90;;;;;;7386274;19;20147;-75
2023/05/15 10:26:38;;;;;;;4.28;3.28;;;19.80;99.90;;;;;;7388598;19;20154;-76
2023/05/15 10:29:17;;;;;;;3.45;2.67;;;19.80;99.90;;;;;;7386949;19;20149;-75
2023/05/15 10:31:42;;;;;;;4.30;2.80;;;20.00;99.90;;;;;;7387240;19;20149;-78
2023/05/15 10:34:09;;;;;;;3.17;2.50;;;20.10;99.90;;;;;;7387162;19;20150;-76
2023/05/15 10:36:37;;;;;;;3.65;2.85;;;20.00;99.90;;;;;;7387329;19;20183;-76
2023/05/15 10:39:05;;;;;;;2.67;2.03;;;19.90;99.90;;;;;;7388732;19;20169;-76
2023/05/15 10:41:38;;;;;;;2.20;1.98;;;19.90;99.90;;;;;;7383700;19;20147;-78
2023/05/15 10:44:04;;;;;;;2.42;2.00;;;20.00;99.90;;;;;;7389512;19;20186;-77
2023/05/15 10:46:34;;;;;;;3.35;2.03;;;20.00;99.90;;;;;;7386616;19;20151;-77
2023/05/15 10:49:00;;;;;;;4.88;2.92;;;19.90;99.90;;;;;;7388210;19;20143;-75
2023/05/15 10:51:28;;;;;;;2.58;1.90;;;19.80;99.90;;;;;;7387284;19;20146;-77
2023/05/15 10:53:55;;;;;;;2.40;1.90;;;19.90;99.90;;;;;;7386989;19;20142;-77
2023/05/15 10:56:28;;;;;;;5.18;1.75;;;20.00;99.90;;;;;;7385915;19;20591;-78
2023/05/15 10:58:54;;;;;;;2.38;1.80;;;20.20;99.90;;;;;;7388278;19;21273;-79
2023/05/15 11:01:33;;;;;;;2.67;1.80;;;20.20;99.90;;;;;;7388596;19;20461;-78
2023/05/15 11:04:12;;;;;;;2.28;2.00;;;20.50;99.90;;;;;;7387273;19;20229;-79
2023/05/15 11:06:44;;;;;;;4.05;2.00;;;20.50;99.90;;;;;;7388707;19;20252;-75
2023/05/15 11:09:23;;;;;;;3.35;2.33;;;20.30;99.90;;;;;;7386384;19;20513;-77
2023/05/15 11:11:56;;;;;;;2.50;2.13;;;20.10;99.90;;;;;;7386130;19;20233;-77
2023/05/15 11:14:25;;;;;;;2.10;1.90;;;20.00;99.90;;;;;;7385936;19;20591;-77
2023/05/15 11:16:54;;;;;;;4.13;3.50;;;20.00;99.90;;;;;;7384306;19;20887;-77
2023/05/15 11:19:33;;;;;;;2.50;1.70;;;19.90;99.90;;;;;;7381921;19;20150;-78
2023/05/15 11:22:15;;;;;;;2.30;2.10;;;20.10;99.90;;;;;;7384901;19;20465;-77
2023/05/15 11:24:59;;;;;;;3.13;2.25;;;20.20;99.90;;;;;;7383014;19;20867;-78
2023/05/15 11:27:30;;;;;;;2.00;1.75;;;20.10;99.90;;;;;;7386700;19;20161;-76
2023/05/15 11:30:23;;;;;;;3.38;2.25;;;19.90;99.90;;;;;;7384983;19;21212;-76
2023/05/15 11:33:00;;;;;;;3.97;2.35;;;19.70;99.90;;;;;;7385054;19;20172;-79
2023/05/15 11:35:44;;;;;;;5.53;2.22;;;19.70;99.90;;;;;;7381476;19;20610;-77
2023/05/15 11:38:18;;;;;;;2.95;1.90;;;19.70;99.90;;;;;;7385413;19;20610;-77
2023/05/15 11:41:02;;;;;;;2.58;1.90;;;19.70;99.90;;;;;;7384061;19;20205;-76
2023/05/15 11:43:37;;;;;;;2.50;1.75;;;19.70;99.90;;;;;;7385429;19;20221;-76
2023/05/15 11:46:06;;;;;;;4.10;2.30;;;19.90;99.90;;;;;;7385160;19;20126;-79
2023/05/15 11:48:34;;;;;;;3.50;1.90;;;20.20;99.90;;;;;;7382235;19;20131;-78
2023/05/15 11:51:01;;;;;;;3.78;2.03;;;20.20;99.90;;;;;;7384887;19;20143;-77
2023/05/15 11:53:28;;;;;;;2.17;1.90;;;20.20;99.90;;;;;;7386378;19;20164;-77
2023/05/15 11:55:54;;;;;;;2.20;1.83;;;20.10;99.90;;;;;;7385812;19;20653;-78
2023/05/15 11:58:21;;;;;;;2.05;1.75;;;20.00;99.90;;;;;;7384124;19;20154;-77
2023/05/15 12:00:49;;;;;;;2.75;2.03;;;20.00;99.90;;;;;;7381481;19;20135;-77
2023/05/15 12:03:26;;;;;;;3.03;2.50;;;20.00;99.90;;;;;;7385879;19;20154;-78
2023/05/15 12:05:53;;;;;;;4.22;2.10;;;20.10;99.90;;;;;;7382661;19;20387;-76
2023/05/15 12:08:22;;;;;;;2.90;2.22;;;20.20;99.90;;;;;;7380555;19;20150;-77
2023/05/15 12:10:49;;;;;;;2.03;1.80;;;20.40;99.90;;;;;;7378149;19;20146;-76
2023/05/15 12:13:17;;;;;;;1.98;1.73;;;20.60;99.90;;;;;;7378843;19;20167;-75
2023/05/15 12:15:46;;;;;;;3.65;1.77;;;20.70;99.90;;;;;;7382918;19;20151;-75
2023/05/15 12:18:12;;;;;;;2.65;1.58;;;20.70;99.90;;;;;;7380456;19;20266;-75
2023/05/15 12:20:43;;;;;;;1.88;1.70;;;20.70;99.90;;;;;;7377727;19;20147;-75
2023/05/15 12:23:10;;;;;;;2.15;1.95;;;20.80;99.90;;;;;;7381292;19;20186;-76
2023/05/15 12:25:36;;;;;;;2.40;2.20;;;20.80;99.90;;;;;;7382365;19;20147;-76
2023/05/15 12:28:04;;;;;;;1.95;1.80;;;20.70;99.90;;;;;;7384207;19;20146;-76
2023/05/15 12:30:31;;;;;;;7.70;2.22;;;20.90;99.90;;;;;;7389112;19;20138;-75
2023/05/15 12:33:03;;;;;;;3.17;1.98;;;21.10;99.90;;;;;;7391237;19;20143;-78
2023/05/15 12:35:29;;;;;;;2.65;1.90;;;21.00;99.90;;;;;;7388919;19;20153;-77
2023/05/15 12:37:55;;;;;;;2.17;1.98;;;20.80;99.90;;;;;;7391103;19;20206;-77
2023/05/15 12:40:22;;;;;;;2.15;1.95;;;20.70;99.90;;;;;;7390301;19;20139;-78
2023/05/15 12:42:52;;;;;;;1.90;1.70;;;20.70;99.90;;;;;;7392076;19;20231;-77
2023/05/15 12:45:19;;;;;;;3.53;2.13;;;21.00;99.90;;;;;;7390253;19;20226;-77
2023/05/15 12:47:48;;;;;;;2.55;1.73;;;21.20;99.90;;;;;;7390471;19;20131;-76
2023/05/15 12:50:15;;;;;;;2.75;2.05;;;21.20;99.90;;;;;;7386472;19;20135;-76
2023/05/15 12:52:59;;;;;;;2.28;2.08;;;21.10;99.90;;;;;;7390584;19;20139;-76